Time;durP1;ratioP1;P1;durP2;ratioP2;P2;SDS_P1;SDS_P2;PMS_P1;PMS_P2;Temp;Humidity;BMP_temperature;BMP_pressure;BME280_temperature;BME280_humidity;BME280_pressure;Samples;Min_cycle;Max_cycle;Signal;HPM_P1;HPM_P2
2022/01/20 00:05:38;;;;;;;13.22;9.95;;;;;;;4.43;79.05;99776.19;2945736;80;21029;-71
2022/01/20 00:20:29;;;;;;;9.63;7.65;;;;;;;4.45;79.35;99779.19;2944297;80;20990;-71
2022/01/20 00:26:46;;;;;;;12.65;9.08;;;;;;;4.43;80.24;99783.26;2999473;78;21020;-71
2022/01/20 00:30:54;;;;;;;;;;;;;;;4.42;81.00;99761.33;3001015;79;21028;-71
2022/01/20 00:39:00;;;;;;;15.63;9.13;;;;;;;4.45;81.30;99768.66;2998949;79;21016;-72
2022/01/20 00:43:05;;;;;;;8.60;5.85;;;;;;;4.43;81.47;99766.97;2999507;79;20965;-72
2022/01/20 00:47:10;;;;;;;11.05;6.58;;;;;;;4.50;81.78;99769.20;2999369;79;21402;-71
2022/01/20 00:51:15;;;;;;;9.45;6.40;;;;;;;4.49;81.85;99773.64;2999290;79;20985;-71
2022/01/20 00:55:31;;;;;;;8.23;5.67;;;;;;;4.52;82.07;99765.98;2998560;79;21029;-71
2022/01/20 00:59:39;;;;;;;8.60;5.30;;;;;;;4.49;82.48;99779.36;2997202;79;20982;-72
2022/01/20 01:03:42;;;;;;;7.75;5.45;;;;;;;4.47;83.28;99761.50;2998751;79;21626;-71
2022/01/20 01:07:46;;;;;;;7.47;6.08;;;;;;;4.41;84.33;99772.81;2998705;79;20973;-71
2022/01/20 01:11:50;;;;;;;5.30;4.62;;;;;;;4.45;84.60;99764.70;2995770;78;21031;-71
2022/01/20 01:15:53;;;;;;;8.03;4.72;;;;;;;4.43;84.56;99762.19;2995423;79;20995;-71
2022/01/20 01:20:13;;;;;;;7.53;5.05;;;;;;;4.39;84.83;99781.28;2996350;79;20951;-71
2022/01/20 01:24:07;;;;;;;8.30;5.62;;;;;;;4.43;85.16;99769.60;2993645;79;20984;-71
2022/01/20 01:28:09;;;;;;;13.03;5.60;;;;;;;4.39;85.41;99762.85;2996003;79;21468;-71
2022/01/20 01:32:20;;;;;;;7.00;6.33;;;;;;;4.38;85.63;99752.41;2995524;79;20960;-71
2022/01/20 01:36:24;;;;;;;6.92;4.35;;;;;;;4.40;85.93;99759.27;2996034;79;21468;-71
2022/01/20 01:40:40;;;;;;;8.55;5.05;;;;;;;4.45;86.04;99758.13;2996227;79;21019;-71
2022/01/20 01:44:44;;;;;;;8.03;5.40;;;;;;;4.44;86.29;99744.13;2995744;79;20960;-70
2022/01/20 01:48:49;;;;;;;6.25;4.87;;;;;;;4.46;86.42;99741.37;2995141;79;20944;-68
2022/01/20 01:52:57;;;;;;;6.53;5.10;;;;;;;4.45;86.56;99726.52;2986976;78;21410;-71
2022/01/20 01:57:05;;;;;;;6.22;4.45;;;;;;;4.47;87.22;99719.36;2972160;80;21010;-71
2022/01/20 02:01:05;;;;;;;4.60;4.17;;;;;;;4.42;87.70;99706.48;2971033;79;20983;-71
2022/01/20 02:05:14;;;;;;;3.98;2.92;;;;;;;4.41;87.80;99703.02;2971338;80;20999;-71
2022/01/20 02:22:02;;;;;;;4.85;3.30;;;;;;;4.37;90.41;99713.39;2902546;81;20983;-71
2022/01/20 02:26:04;;;;;;;4.85;4.00;;;;;;;4.40;90.78;99703.97;2901991;82;20995;-72
2022/01/20 02:30:07;;;;;;;4.87;3.95;;;;;;;4.41;90.87;99687.22;2901880;82;21023;-72
2022/01/20 02:34:14;;;;;;;4.65;3.40;;;;;;;4.47;90.56;99699.61;2961509;80;20946;-71
2022/01/20 02:38:23;;;;;;;4.33;3.25;;;;;;;4.48;90.59;99710.05;2963000;80;20970;-72
2022/01/20 02:46:35;;;;;;;5.72;3.95;;;;;;;4.55;90.50;99696.01;2962987;80;20966;-69
2022/01/20 02:50:37;;;;;;;6.53;3.05;;;;;;;4.61;90.35;99703.95;2963179;80;21296;-72
2022/01/20 02:54:38;;;;;;;3.77;3.45;;;;;;;4.68;90.24;99688.95;2918525;81;20994;-71
2022/01/20 02:58:41;;;;;;;3.50;2.62;;;;;;;4.77;89.84;99700.67;2901770;82;21007;-72
2022/01/20 03:02:43;;;;;;;3.65;3.33;;;;;;;4.76;89.80;99691.57;2880978;82;21019;-72
2022/01/20 03:06:44;;;;;;;3.95;3.12;;;;;;;4.84;89.30;99698.02;2902117;82;21039;-72
2022/01/20 03:10:46;;;;;;;5.05;3.77;;;;;;;4.83;89.12;99695.47;2919120;81;21002;-71
2022/01/20 03:14:48;;;;;;;3.67;3.00;;;;;;;4.84;88.99;99686.16;2901493;82;21047;-72
2022/01/20 03:18:49;;;;;;;7.40;4.47;;;;;;;4.88;88.71;99673.59;2942700;79;20990;-72
2022/01/20 03:22:51;;;;;;;6.20;4.17;;;;;;;4.97;88.28;99684.84;2926254;81;21002;-72
2022/01/20 03:26:53;;;;;;;4.58;3.87;;;;;;;4.98;87.96;99689.16;2926702;81;21006;-72
2022/01/20 03:30:54;;;;;;;6.78;4.25;;;;;;;4.99;87.57;99672.40;2926489;81;21003;-72
2022/01/20 03:34:56;;;;;;;3.42;3.12;;;;;;;5.05;87.24;99682.14;3000751;79;20999;-72
2022/01/20 03:38:58;;;;;;;6.87;3.90;;;;;;;5.11;86.84;99681.71;3001011;79;20955;-72
2022/01/20 03:42:59;;;;;;;5.78;4.15;;;;;;;5.12;85.97;99668.93;3001692;79;21003;-72
2022/01/20 03:47:02;;;;;;;8.13;4.47;;;;;;;5.14;85.75;99684.17;3001432;79;21476;-72
2022/01/20 03:51:05;;;;;;;6.20;3.00;;;;;;;5.12;85.06;99666.30;3001876;79;20968;-72
2022/01/20 03:55:07;;;;;;;6.50;4.80;;;;;;;5.06;84.08;99682.52;3001737;79;20936;-72
2022/01/20 03:59:09;;;;;;;6.78;3.20;;;;;;;4.99;83.87;99688.67;3001532;79;20979;-72
2022/01/20 04:03:13;;;;;;;6.50;3.47;;;;;;;4.87;84.14;99689.03;2995894;78;20887;-71
2022/01/20 04:07:15;;;;;;;8.80;4.55;;;;;;;4.77;84.03;99682.72;2975658;79;20981;-69
2022/01/20 04:11:21;;;;;;;8.73;4.65;;;;;;;4.74;83.94;99679.80;2975834;79;20954;-69
2022/01/20 04:15:27;;;;;;;5.40;2.72;;;;;;;4.80;84.26;99693.88;2973718;79;21455;-69
2022/01/20 04:19:27;;;;;;;9.30;3.67;;;;;;;4.65;83.92;99701.52;2949637;80;21030;-68
2022/01/20 04:23:30;;;;;;;9.23;4.10;;;;;;;4.73;83.89;99700.52;2949532;80;20959;-70
2022/01/20 04:27:31;;;;;;;6.95;3.50;;;;;;;4.66;82.59;99668.95;2949751;80;20979;-69
2022/01/20 04:31:35;;;;;;;12.18;3.45;;;;;;;4.61;82.60;99691.64;2949854;80;20951;-70
2022/01/20 04:35:37;;;;;;;7.55;2.95;;;;;;;4.55;82.48;99691.57;2949826;80;21479;-70
2022/01/20 04:39:45;;;;;;;5.35;2.08;;;;;;;4.45;81.98;99710.72;2949878;80;20927;-70
2022/01/20 04:43:43;;;;;;;12.47;4.65;;;;;;;4.31;82.44;99715.08;2949186;80;20986;-70
2022/01/20 04:47:52;;;;;;;8.40;3.15;;;;;;;4.24;83.06;99726.97;2949995;80;20994;-70
2022/01/20 05:00:17;;;;;;;7.55;3.08;;;;;;;4.14;84.73;99737.24;2949515;80;20952;-69
2022/01/20 05:04:19;;;;;;;8.95;2.40;;;;;;;4.19;82.81;99711.46;2949196;80;21499;-71
2022/01/20 05:08:23;;;;;;;3.87;2.22;;;;;;;4.17;82.87;99727.83;2949442;80;20955;-72
2022/01/20 05:12:39;;;;;;;7.12;2.55;;;;;;;4.11;81.80;99715.90;2909507;81;20998;-72
2022/01/20 05:16:29;;;;;;;3.47;2.15;;;;;;;4.13;82.12;99722.39;2874915;82;21019;-72
2022/01/20 05:20:31;;;;;;;6.40;2.52;;;;;;;3.99;83.41;99732.49;2920070;81;20962;-72
2022/01/20 05:24:33;;;;;;;6.60;2.05;;;;;;;3.88;84.33;99718.70;2920192;81;21002;-72
2022/01/20 05:28:34;;;;;;;4.65;2.33;;;;;;;3.81;85.12;99698.95;2922396;81;20979;-72
2022/01/20 05:32:36;;;;;;;6.97;2.55;;;;;;;3.71;84.30;99718.42;2921530;81;21510;-72
2022/01/20 05:36:39;;;;;;;6.58;2.47;;;;;;;3.68;85.02;99711.59;2919912;81;20938;-72
2022/01/20 05:40:41;;;;;;;9.55;2.72;;;;;;;3.56;82.69;99712.34;2919819;81;20997;-73
2022/01/20 05:44:44;;;;;;;11.65;2.25;;;;;;;3.56;82.04;99710.56;2919987;81;21568;-71
2022/01/20 05:48:48;;;;;;;4.03;2.15;;;;;;;3.42;80.31;99704.81;2919924;81;21463;-71
2022/01/20 05:52:49;;;;;;;13.90;2.95;;;;;;;3.41;79.95;99719.39;2919985;81;21018;-71
2022/01/20 05:56:52;;;;;;;12.47;4.83;;;;;;;3.42;79.53;99696.10;2919826;81;20967;-71
2022/01/20 06:00:53;;;;;;;9.75;3.10;;;;;;;3.29;79.54;99698.16;2930771;80;20986;-71
2022/01/20 06:04:55;;;;;;;10.70;3.42;;;;;;;3.27;79.49;99697.89;2971622;80;21002;-71
2022/01/20 06:08:57;;;;;;;19.17;3.25;;;;;;;3.27;79.37;99690.84;2971858;80;20954;-71
2022/01/20 06:12:59;;;;;;;11.78;3.33;;;;;;;3.16;79.17;99693.29;2971716;80;20947;-71
2022/01/20 06:17:01;;;;;;;10.15;3.17;;;;;;;3.17;79.89;99705.49;2971469;80;21558;-71
2022/01/20 06:21:03;;;;;;;8.40;2.58;;;;;;;3.04;79.75;99701.91;2971627;80;21049;-71
2022/01/20 06:25:06;;;;;;;11.63;4.10;;;;;;;3.04;79.87;99710.61;2971679;80;21017;-71
2022/01/20 06:29:08;;;;;;;8.05;3.20;;;;;;;3.02;79.90;99681.44;2971731;80;20982;-71
2022/01/20 06:33:10;;;;;;;15.00;5.40;;;;;;;2.91;80.04;99672.41;2971668;80;20990;-71
2022/01/20 06:37:12;;;;;;;11.90;3.80;;;;;;;2.94;80.03;99666.97;2971767;80;21020;-71
2022/01/20 06:41:13;;;;;;;5.03;2.40;;;;;;;2.93;79.91;99642.11;2971464;80;21490;-71
2022/01/20 06:45:17;;;;;;;16.67;4.03;;;;;;;2.92;80.41;99649.63;2971919;80;20978;-71
2022/01/20 06:49:19;;;;;;;7.90;3.60;;;;;;;2.99;80.55;99634.71;2971765;80;20986;-71
2022/01/20 06:53:21;;;;;;;23.05;3.20;;;;;;;3.10;80.47;99634.05;2971693;80;20972;-71
2022/01/20 06:57:23;;;;;;;7.45;3.35;;;;;;;3.26;79.57;99622.60;2971714;80;21522;-71
2022/01/20 07:01:24;;;;;;;13.50;4.03;;;;;;;3.39;78.84;99626.13;2971646;80;20966;-72
2022/01/20 07:05:26;;;;;;;14.58;3.62;;;;;;;3.46;78.21;99613.45;2971672;80;21005;-71
2022/01/20 07:09:28;;;;;;;13.32;4.40;;;;;;;3.57;77.80;99613.63;2971396;80;20978;-71
2022/01/20 07:13:29;;;;;;;12.15;4.33;;;;;;;3.54;77.73;99624.80;2971759;80;21454;-71
2022/01/20 07:17:31;;;;;;;14.68;3.55;;;;;;;3.61;77.66;99627.41;2971552;79;21010;-72
2022/01/20 07:21:33;;;;;;;13.50;5.17;;;;;;;3.66;78.47;99627.13;2971774;80;20958;-71
2022/01/20 07:25:34;;;;;;;14.45;4.83;;;;;;;3.68;79.07;99626.55;2971139;80;21033;-71
2022/01/20 07:29:36;;;;;;;14.33;4.90;;;;;;;3.68;78.94;99613.40;2971766;80;20989;-72
2022/01/20 07:33:38;;;;;;;13.55;5.25;;;;;;;3.69;79.18;99624.29;2971862;80;21479;-71
2022/01/20 07:37:40;;;;;;;11.78;4.55;;;;;;;3.75;79.78;99635.77;2971915;80;20971;-71
2022/01/20 07:41:42;;;;;;;10.08;3.62;;;;;;;3.71;80.11;99596.95;2971597;80;21029;-72
2022/01/20 07:45:44;;;;;;;11.80;2.85;;;;;;;3.67;81.74;99592.84;2971659;80;21005;-72
2022/01/20 07:49:46;;;;;;;5.35;2.22;;;;;;;3.57;83.67;99585.16;2971793;80;21017;-72
2022/01/20 07:53:47;;;;;;;6.83;3.60;;;;;;;3.27;86.77;99587.48;2971710;80;21533;-72
2022/01/20 07:57:49;;;;;;;4.50;3.25;;;;;;;3.11;89.13;99620.43;2971574;80;20958;-71
2022/01/20 08:01:51;;;;;;;3.72;1.17;;;;;;;2.92;91.04;99693.80;2971668;80;20993;-73
2022/01/20 08:05:53;;;;;;;9.03;1.17;;;;;;;1.76;100.00;99716.95;2971449;80;21009;-72
2022/01/20 08:09:58;;;;;;;1.85;1.62;;;;;;;0.42;100.00;99776.55;2971887;80;21498;-72
2022/01/20 08:13:58;;;;;;;0.80;0.70;;;;;;;0.03;100.00;99735.66;2971591;80;20986;-72
2022/01/20 08:18:00;;;;;;;3.62;2.00;;;;;;;0.22;100.00;99714.73;2970075;78;21006;-73
2022/01/20 08:22:02;;;;;;;11.18;2.87;;;;;;;0.36;100.00;99724.52;2968356;79;21061;-73
2022/01/20 08:26:03;;;;;;;7.65;4.22;;;;;;;0.46;100.00;99718.37;2968729;79;20962;-72
2022/01/20 08:30:10;;;;;;;5.25;3.35;;;;;;;0.47;100.00;99738.39;2968893;80;20954;-72
2022/01/20 08:34:11;;;;;;;8.78;2.87;;;;;;;0.52;100.00;99748.17;2968435;79;21001;-72
2022/01/20 08:38:13;;;;;;;6.58;2.47;;;;;;;0.62;100.00;99752.05;2968632;79;21001;-73
2022/01/20 08:42:15;;;;;;;10.88;3.08;;;;;;;0.64;100.00;99737.55;2968535;80;21423;-72
2022/01/20 08:46:20;;;;;;;7.05;2.27;;;;;;;0.78;100.00;99749.95;2968621;79;20907;-72
2022/01/20 08:50:21;;;;;;;4.35;1.82;;;;;;;0.92;100.00;99745.36;2968556;79;21467;-72
2022/01/20 08:54:23;;;;;;;3.95;1.30;;;;;;;0.95;100.00;99749.95;2968793;79;21001;-72
2022/01/20 08:58:25;;;;;;;8.25;3.42;;;;;;;1.07;100.00;99749.80;2968566;79;20966;-73
2022/01/20 09:02:27;;;;;;;6.58;2.55;;;;;;;1.17;100.00;99736.23;2968600;79;21375;-73
2022/01/20 09:06:29;;;;;;;5.60;2.02;;;;;;;1.08;100.00;99741.03;2968713;79;20993;-73
2022/01/20 09:10:37;;;;;;;9.73;2.77;;;;;;;1.13;100.00;99736.40;2968616;79;21546;-72
2022/01/20 09:18:50;;;;;;;7.30;3.17;;;;;;;1.10;100.00;99777.17;2970799;80;21503;-72
2022/01/20 09:22:52;;;;;;;3.87;1.75;;;;;;;1.07;100.00;99779.09;2971779;80;20962;-72
2022/01/20 09:26:54;;;;;;;5.67;2.00;;;;;;;1.01;100.00;99783.34;2971962;80;21001;-72
2022/01/20 09:30:58;;;;;;;9.73;1.85;;;;;;;0.85;100.00;99799.80;2971696;80;21034;-72
2022/01/20 09:34:59;;;;;;;7.22;2.42;;;;;;;0.79;99.45;99814.52;2971893;80;20922;-72
2022/01/20 09:39:01;;;;;;;5.12;1.75;;;;;;;0.99;98.49;99836.65;2971791;80;20970;-72
2022/01/20 09:43:05;;;;;;;5.08;2.45;;;;;;;1.13;94.34;99869.16;2971543;80;20966;-72
2022/01/20 09:47:07;;;;;;;4.35;2.25;;;;;;;1.20;94.41;99871.87;2971677;80;20962;-72
2022/01/20 09:51:13;;;;;;;6.60;1.43;;;;;;;1.12;89.65;99883.17;2971689;80;20985;-72
2022/01/20 09:55:12;;;;;;;3.62;1.15;;;;;;;1.18;83.69;99875.03;2971431;80;21015;-72
2022/01/20 09:59:14;;;;;;;6.83;2.25;;;;;;;1.21;82.31;99870.95;2972150;80;21482;-72
2022/01/20 10:03:20;;;;;;;4.40;1.92;;;;;;;1.28;82.49;99896.39;2973798;80;20974;-72
2022/01/20 10:07:21;;;;;;;3.98;1.35;;;;;;;1.33;79.68;99913.17;2973392;80;20978;-72
2022/01/20 10:11:23;;;;;;;3.02;1.35;;;;;;;1.30;78.85;99902.84;2971084;80;20982;-72
2022/01/20 10:15:28;;;;;;;6.12;2.80;;;;;;;1.48;80.44;99907.66;2971905;80;21556;-73
2022/01/20 10:19:29;;;;;;;4.72;3.47;;;;;;;1.62;79.89;99905.64;2961385;79;21495;-72
2022/01/20 10:23:39;;;;;;;29.32;11.53;;;;;;;1.59;75.17;99909.26;2958079;80;20990;-72
2022/01/20 10:27:54;;;;;;;33.50;20.48;;;;;;;1.74;74.94;99902.86;2957700;80;21475;-73
2022/01/20 10:31:55;;;;;;;14.58;7.30;;;;;;;1.75;71.46;99901.45;2958190;80;20994;-72
2022/01/20 10:36:02;;;;;;;10.08;6.53;;;;;;;1.65;66.77;99904.17;2958566;80;20998;-72
2022/01/20 10:40:14;;;;;;;15.85;6.35;;;;;;;1.61;63.90;99900.02;2956847;80;21026;-72
2022/01/20 10:44:16;;;;;;;9.05;3.87;;;;;;;1.67;62.92;99889.20;2957456;80;21527;-72
2022/01/20 10:48:19;;;;;;;17.95;6.37;;;;;;;1.89;66.36;99882.84;2958057;80;20970;-72
2022/01/20 10:52:24;;;;;;;7.45;3.17;;;;;;;1.81;63.54;99887.17;2957965;80;20978;-72
2022/01/20 10:56:25;;;;;;;4.58;2.70;;;;;;;1.92;64.31;99873.50;2958167;80;21471;-72
2022/01/20 11:00:27;;;;;;;17.27;6.87;;;;;;;1.88;64.97;99877.22;2958334;80;20963;-72
2022/01/20 11:04:30;;;;;;;10.82;5.00;;;;;;;1.85;65.36;99878.22;2958066;80;21379;-72
2022/01/20 11:08:32;;;;;;;10.32;4.00;;;;;;;2.03;64.71;99871.17;2958113;80;20927;-72
2022/01/20 11:12:36;;;;;;;12.73;5.33;;;;;;;2.18;65.52;99884.41;2958114;80;20982;-71
2022/01/20 11:16:40;;;;;;;6.87;2.77;;;;;;;2.17;63.71;99881.41;2958175;80;21518;-71
2022/01/20 11:20:50;;;;;;;8.63;5.20;;;;;;;2.21;66.50;99877.20;2958296;80;21065;-71
2022/01/20 11:25:06;;;;;;;5.20;2.83;;;;;;;2.28;64.87;99875.09;2958276;80;21002;-71
2022/01/20 11:29:08;;;;;;;15.08;3.87;;;;;;;2.33;64.43;99890.61;2957845;80;30613;-72
2022/01/20 11:33:15;;;;;;;7.75;2.27;;;;;;;2.50;65.18;99868.22;2957731;80;20990;-71
2022/01/20 11:37:19;;;;;;;4.67;1.40;;;;;;;2.43;66.06;99870.78;2958697;80;20955;-71
2022/01/20 11:41:22;;;;;;;4.00;1.67;;;;;;;2.30;64.24;99892.92;2958491;80;20966;-71
2022/01/20 11:45:33;;;;;;;7.67;2.50;;;;;;;2.35;66.56;99867.27;2958367;80;20990;-71
2022/01/20 11:49:38;;;;;;;2.67;1.67;;;;;;;2.46;63.38;99885.53;2958432;80;20994;-71
2022/01/20 11:53:43;;;;;;;5.87;2.25;;;;;;;2.46;63.43;99890.78;2958401;80;20959;-72
2022/01/20 11:57:44;;;;;;;8.00;2.35;;;;;;;2.54;64.68;99867.57;2958546;80;21002;-71
2022/01/20 12:01:55;;;;;;;16.42;6.05;;;;;;;2.42;64.93;99862.08;2958563;80;20994;-72
2022/01/20 12:06:01;;;;;;;5.20;2.75;;;;;;;2.33;66.12;99853.86;2958512;80;20986;-71
2022/01/20 12:10:11;;;;;;;3.08;2.20;;;;;;;2.36;65.62;99853.23;2958575;80;20998;-72
2022/01/20 12:14:17;;;;;;;7.15;2.98;;;;;;;2.37;65.96;99866.74;2958336;80;21534;-72
2022/01/20 12:18:19;;;;;;;10.98;4.20;;;;;;;2.50;62.87;99855.55;2955459;80;21396;-72
2022/01/20 12:22:21;;;;;;;7.05;2.45;;;;;;;2.67;61.53;99869.91;2958342;80;20982;-71
2022/01/20 12:26:23;;;;;;;14.10;5.12;;;;;;;2.71;61.89;99876.67;2958649;80;21006;-71
2022/01/20 12:30:25;;;;;;;4.53;1.75;;;;;;;2.71;61.87;99896.38;2958448;80;20982;-72
2022/01/20 12:34:27;;;;;;;4.62;1.98;;;;;;;2.68;60.34;99882.11;2958293;80;21510;-72
2022/01/20 12:38:36;;;;;;;15.65;6.95;;;;;;;2.79;63.29;99864.91;2958330;80;20990;-72
2022/01/20 12:42:38;;;;;;;21.40;10.32;;;;;;;2.76;60.75;99903.17;2957960;80;20962;-72
2022/01/20 12:46:41;;;;;;;7.65;2.65;;;;;;;2.92;60.38;99906.62;2958634;80;20974;-72
2022/01/20 12:50:56;;;;;;;7.17;3.62;;;;;;;2.88;59.94;99866.17;2958379;80;21495;-71
2022/01/20 12:54:58;;;;;;;7.80;1.75;;;;;;;2.88;59.58;99891.14;2957260;80;21455;-72
2022/01/20 12:59:00;;;;;;;4.35;2.37;;;;;;;2.61;61.32;99834.80;2958508;80;20935;-71
2022/01/20 13:03:02;;;;;;;3.65;2.02;;;;;;;2.53;62.39;99876.38;2958024;80;20958;-72
2022/01/20 13:07:05;;;;;;;3.98;1.72;;;;;;;2.26;61.75;99853.34;2958782;80;20938;-72
2022/01/20 13:11:13;;;;;;;11.73;3.00;;;;;;;2.41;64.03;99871.34;2958492;80;21025;-72
2022/01/20 13:15:21;;;;;;;5.03;2.60;;;;;;;2.45;62.46;99887.30;2957929;80;21033;-72
2022/01/20 13:19:46;;;;;;;5.05;2.77;;;;;;;2.49;66.77;99878.34;2958289;79;20975;-72
2022/01/20 13:23:57;;;;;;;7.75;3.02;;;;;;;2.46;68.10;99890.78;2958224;80;20970;-72
2022/01/20 13:28:06;;;;;;;8.58;3.62;;;;;;;2.35;70.71;99885.64;2958334;80;20978;-72
2022/01/20 13:32:08;;;;;;;11.93;4.03;;;;;;;2.28;71.24;99910.08;2958540;80;20963;-72
2022/01/20 13:36:10;;;;;;;14.35;3.00;;;;;;;2.37;73.16;99913.13;2958334;80;20918;-72
2022/01/20 13:40:16;;;;;;;8.73;3.70;;;;;;;2.22;72.93;99924.83;2958379;80;20954;-71
2022/01/20 13:48:34;;;;;;;10.85;2.77;;;;;;;2.23;72.53;99909.94;2958558;80;20982;-72
2022/01/20 13:52:39;;;;;;;10.48;4.30;;;;;;;2.17;72.03;99908.48;2958463;80;20951;-72
2022/01/20 13:56:53;;;;;;;8.18;3.02;;;;;;;2.16;72.67;99899.36;2958261;80;20927;-71
2022/01/20 14:00:58;;;;;;;9.88;4.55;;;;;;;2.09;73.58;99907.57;2958401;80;21074;-72
2022/01/20 14:04:59;;;;;;;11.60;3.58;;;;;;;2.08;72.44;99903.25;2958330;80;21017;-69
2022/01/20 14:09:01;;;;;;;7.80;3.75;;;;;;;2.06;70.47;99888.06;2958300;80;20982;-69
2022/01/20 14:13:03;;;;;;;11.08;2.83;;;;;;;2.31;72.29;99914.78;2958557;80;20978;-69
2022/01/20 14:17:21;;;;;;;8.35;2.83;;;;;;;2.36;72.22;99914.06;2958569;80;20967;-69
2022/01/20 14:21:23;;;;;;;14.28;3.67;;;;;;;2.40;71.13;99925.64;2958032;79;20943;-68
2022/01/20 14:25:25;;;;;;;8.68;2.30;;;;;;;2.45;70.11;99935.04;2957110;80;21034;-69
2022/01/20 14:29:27;;;;;;;9.05;2.35;;;;;;;2.39;68.82;99934.45;2958778;80;21519;-69
2022/01/20 14:33:29;;;;;;;6.83;3.85;;;;;;;2.25;70.25;99954.01;2958889;80;21022;-69
2022/01/20 14:37:37;;;;;;;6.28;3.22;;;;;;;2.25;72.00;99954.01;2958585;80;20972;-69
2022/01/20 14:41:34;;;;;;;4.80;3.45;;;;;;;2.11;73.71;99950.80;2957962;80;20970;-69
2022/01/20 14:45:36;;;;;;;16.40;5.67;;;;;;;1.99;74.84;99933.44;2958670;80;20981;-69
2022/01/20 14:49:38;;;;;;;10.03;3.72;;;;;;;1.79;75.88;99950.22;2958513;80;21013;-69
2022/01/20 14:53:39;;;;;;;8.13;4.10;;;;;;;1.61;76.11;99945.90;2958709;80;21530;-70
2022/01/20 14:57:41;;;;;;;10.95;4.03;;;;;;;1.55;76.42;99953.13;2934526;80;21033;-70
2022/01/20 15:01:43;;;;;;;9.00;4.37;;;;;;;1.53;75.75;99934.00;2959119;80;21467;-70
2022/01/20 15:05:45;;;;;;;10.25;3.80;;;;;;;1.56;75.08;99948.27;2958705;80;20960;-69
2022/01/20 15:09:47;;;;;;;9.98;3.22;;;;;;;1.58;75.00;99943.44;2958720;80;21021;-70
2022/01/20 15:13:49;;;;;;;15.88;4.37;;;;;;;1.56;74.89;99954.81;2958694;80;20977;-70
2022/01/20 15:17:51;;;;;;;11.20;4.83;;;;;;;1.65;75.32;99955.30;2958507;79;21041;-69
2022/01/20 15:21:53;;;;;;;9.13;4.85;;;;;;;1.61;75.23;99956.39;2959195;80;21578;-70
2022/01/20 15:25:55;;;;;;;9.75;3.47;;;;;;;1.53;75.11;99954.98;2958319;80;20947;-72
2022/01/20 15:29:56;;;;;;;8.63;3.45;;;;;;;1.46;74.83;99949.66;2958443;80;20982;-69
2022/01/20 15:33:58;;;;;;;6.78;4.37;;;;;;;1.39;75.12;99957.45;2958479;80;20954;-71
2022/01/20 15:38:00;;;;;;;7.42;3.02;;;;;;;1.22;75.19;99974.84;2958595;80;21029;-71
2022/01/20 15:42:01;;;;;;;7.72;3.85;;;;;;;1.11;75.51;99970.11;2958875;80;21022;-70
2022/01/20 15:46:03;;;;;;;9.20;3.15;;;;;;;1.06;76.45;99965.52;2958492;80;20998;-71
2022/01/20 15:50:09;;;;;;;9.83;4.40;;;;;;;0.97;76.25;99991.70;2958447;80;21009;-71
2022/01/20 15:54:11;;;;;;;10.63;4.12;;;;;;;1.05;76.68;99973.00;2958643;80;20950;-70
2022/01/20 15:58:13;;;;;;;7.05;3.30;;;;;;;1.01;77.33;99972.77;2958279;80;20974;-70
2022/01/20 16:02:14;;;;;;;17.75;3.98;;;;;;;1.02;76.73;99989.34;2958557;80;21507;-71
2022/01/20 16:06:16;;;;;;;15.00;3.47;;;;;;;0.93;75.84;99980.98;2958516;80;20998;-71
2022/01/20 16:10:18;;;;;;;9.48;3.42;;;;;;;0.95;74.27;99990.09;2958461;80;20962;-71
2022/01/20 16:14:34;;;;;;;7.97;3.87;;;;;;;1.01;73.26;99995.03;2958609;80;20959;-69
2022/01/20 16:18:49;;;;;;;11.90;4.20;;;;;;;1.11;72.64;99988.89;2959879;79;20967;-71
2022/01/20 16:22:51;;;;;;;11.20;4.78;;;;;;;1.16;72.84;99997.86;2968883;79;21057;-70
2022/01/20 16:26:53;;;;;;;12.93;4.35;;;;;;;1.08;73.22;99992.53;2968394;80;20994;-71
2022/01/20 16:31:08;;;;;;;8.88;4.45;;;;;;;1.12;74.22;100008.94;2968557;80;20958;-71
2022/01/20 16:35:24;;;;;;;23.45;7.10;;;;;;;1.05;75.51;100010.98;2968711;80;21475;-71
2022/01/20 16:39:25;;;;;;;8.23;4.67;;;;;;;0.93;77.14;100017.64;2968632;80;20993;-71
2022/01/20 16:43:41;;;;;;;13.25;4.97;;;;;;;0.89;78.47;100016.57;2968700;79;20982;-71
2022/01/20 16:47:44;;;;;;;12.95;5.92;;;;;;;0.79;79.78;100001.27;2969014;79;20951;-71
2022/01/20 16:51:46;;;;;;;14.95;6.55;;;;;;;0.79;79.71;100006.98;2968439;79;20998;-71
2022/01/20 16:55:48;;;;;;;13.32;6.40;;;;;;;0.81;79.64;100004.66;2968698;80;20970;-71
2022/01/20 16:59:52;;;;;;;13.08;6.22;;;;;;;0.79;79.75;100008.28;2968647;79;20950;-71
2022/01/20 17:03:53;;;;;;;11.70;6.30;;;;;;;0.78;80.05;100005.25;2968502;79;20954;-70
2022/01/20 17:07:55;;;;;;;9.40;4.17;;;;;;;0.78;80.71;99998.26;2968912;79;20978;-71
2022/01/20 17:11:56;;;;;;;14.43;6.47;;;;;;;0.80;80.50;99998.20;2968588;79;20930;-71
2022/01/20 17:15:58;;;;;;;12.95;6.35;;;;;;;0.80;80.41;100015.22;2968500;80;21459;-71
2022/01/20 17:20:02;;;;;;;12.30;5.53;;;;;;;0.81;80.26;100024.30;2964255;79;20982;-71
2022/01/20 17:24:04;;;;;;;7.17;5.50;;;;;;;0.84;80.40;100045.58;2958411;80;21526;-70
2022/01/20 17:28:06;;;;;;;13.65;5.60;;;;;;;0.89;81.01;100064.55;2958739;80;21018;-70
2022/01/20 17:32:08;;;;;;;13.35;5.60;;;;;;;0.85;83.00;100061.69;2958397;80;21471;-71
2022/01/20 17:36:11;;;;;;;18.55;5.72;;;;;;;0.96;82.49;100065.95;2957966;80;21460;-71
2022/01/20 17:40:14;;;;;;;22.48;9.03;;;;;;;0.97;81.11;100072.89;2958364;80;21479;-70
2022/01/20 17:44:16;;;;;;;27.67;8.10;;;;;;;1.02;81.40;100081.03;2958482;80;21005;-71
2022/01/20 17:48:17;;;;;;;25.10;9.95;;;;;;;0.93;80.93;100073.95;2958571;80;20985;-71
2022/01/20 17:52:33;;;;;;;24.15;7.78;;;;;;;0.90;80.39;100085.89;2958491;80;20978;-71
2022/01/20 17:56:49;;;;;;;31.52;14.65;;;;;;;0.84;79.11;100082.24;2958369;80;20982;-71
2022/01/20 18:01:05;;;;;;;65.37;24.65;;;;;;;0.89;78.61;100091.22;2958433;80;20962;-71
2022/01/20 18:05:20;;;;;;;31.02;14.13;;;;;;;0.91;77.91;100098.54;2958768;80;21014;-70
2022/01/20 18:09:22;;;;;;;11.97;7.58;;;;;;;0.93;77.84;100091.45;2956046;80;20982;-71
2022/01/20 18:13:37;;;;;;;10.88;6.03;;;;;;;0.95;77.55;100082.59;2957967;79;21024;-70
2022/01/20 18:17:53;;;;;;;17.62;6.25;;;;;;;0.94;77.48;100082.20;2927126;81;20976;-70
2022/01/20 18:21:55;;;;;;;17.85;7.10;;;;;;;0.88;77.69;100090.79;2944348;79;21023;-71
2022/01/20 18:26:10;;;;;;;112.83;60.90;;;;;;;0.73;78.74;100099.73;2942626;76;21052;-73
2022/01/20 18:30:15;;;;;;;57.05;30.00;;;;;;;0.71;79.20;100105.03;2883212;81;21026;-74
2022/01/20 18:34:22;;;;;;;36.80;19.37;;;;;;;0.87;78.87;100109.60;2865770;82;21061;-73
2022/01/20 18:38:23;;;;;;;18.87;10.13;;;;;;;1.12;78.95;100109.80;2870947;81;21002;-72
2022/01/20 18:42:25;;;;;;;17.50;10.25;;;;;;;1.23;78.92;100110.17;2918921;81;21020;-73
2022/01/20 18:46:27;;;;;;;22.60;7.47;;;;;;;1.27;78.04;100103.00;2884669;82;21061;-73
2022/01/20 18:50:29;;;;;;;14.25;7.80;;;;;;;1.19;77.16;100098.14;2832832;84;20986;-73
2022/01/20 18:54:31;;;;;;;17.00;7.95;;;;;;;0.93;77.84;100099.31;2884111;82;21796;-73
2022/01/20 18:58:32;;;;;;;12.33;4.47;;;;;;;0.83;78.18;100097.09;2870584;83;20987;-71
2022/01/20 19:02:34;;;;;;;10.38;4.17;;;;;;;0.70;78.73;100097.27;2918486;80;20976;-74
2022/01/20 19:06:36;;;;;;;15.95;6.47;;;;;;;0.50;79.92;100108.58;2884175;82;20995;-76
2022/01/20 19:10:37;;;;;;;12.00;6.20;;;;;;;0.54;80.38;100103.60;2832218;84;21530;-72
2022/01/20 19:14:39;;;;;;;18.98;7.92;;;;;;;0.63;81.14;100110.20;2884558;82;20983;-73
2022/01/20 19:18:42;;;;;;;12.53;7.05;;;;;;;0.73;81.53;100108.91;2870689;83;20981;-72
2022/01/20 19:22:44;;;;;;;13.10;6.22;;;;;;;0.80;81.53;100108.19;2918694;81;21540;-73
2022/01/20 19:26:47;;;;;;;13.28;7.12;;;;;;;0.67;81.82;100111.33;2921722;81;21070;-73
2022/01/20 19:30:49;;;;;;;19.50;8.45;;;;;;;0.76;81.50;100114.00;2925069;81;21023;-73
2022/01/20 19:34:51;;;;;;;20.50;7.85;;;;;;;0.74;81.83;100126.76;2924596;81;21003;-73
2022/01/20 19:38:53;;;;;;;12.18;6.15;;;;;;;0.86;81.75;100126.23;2924585;81;21023;-73
2022/01/20 19:42:54;;;;;;;9.55;5.00;;;;;;;0.90;81.91;100129.10;2924470;81;20978;-73
2022/01/20 19:47:10;;;;;;;10.53;4.33;;;;;;;0.98;81.74;100129.63;2924478;81;21541;-73
2022/01/20 19:51:13;;;;;;;10.28;6.62;;;;;;;0.96;81.94;100143.23;2924423;81;20942;-73
2022/01/20 19:55:29;;;;;;;12.43;4.12;;;;;;;0.95;82.06;100149.38;2924490;81;20958;-71
2022/01/20 19:59:45;;;;;;;7.28;5.03;;;;;;;0.80;82.27;100169.25;2924642;81;20982;-73
2022/01/20 20:03:48;;;;;;;9.50;3.15;;;;;;;0.70;82.31;100158.31;2924443;81;21041;-73
2022/01/20 20:08:03;;;;;;;10.75;5.80;;;;;;;0.65;82.30;100159.42;2924599;81;20950;-73